KLAW/LAW METAR and TAF weather

Enter ICAO airport designator
Station Type Date Time Source
KLAW METAR 2020/04/06 14:11 UTC NOAA

KLAW 061411Z 17009KT 3SM BR OVC007 16/14 A3000 RMK AO2 CIG 005V009 T01560139


Station Type Date Time Source
KLAW Decoded METAR 2020/04/06 14:11 UTC NOAA

LAWTON - FORT SILL REGIONAL, OK, United States (KLAW) 34-34N 98-25W 337M
Apr 06, 2020 - 10:11 AM EDT / 2020.04.06 1411 UTC
Wind: from the S (170 degrees) at 10 MPH (9 KT):0
Visibility: 3 mile(s):0
Sky conditions: overcast
Weather: mist
Temperature: 60.1 F (15.6 C)
Dew Point: 57.0 F (13.9 C)
Relative Humidity: 89%
Pressure (altimeter): 30 in. Hg (1015 hPa)
ob: KLAW 061411Z 17009KT 3SM BR OVC007 16/14 A3000 RMK AO2 CIG 005V009 T01560139
cycle: 14

Station Type Date Time Source
KLAW TAF 2020/04/06 12:27 UTC NOAA

TAF KLAW 061124Z 0612/0712 16008KT 6SM BR OVC008
FM061800 19012KT P6SM BKN040
FM062200 19014KT P6SM BKN120
FM070000 18012KT P6SM SCT150
FM070600 18009KT P6SM OVC250

Example: see airport list